Time;durP1;ratioP1;P1;durP2;ratioP2;P2;SDS_P1;SDS_P2;PMS_P1;PMS_P2;Temp;Humidity;BMP_temperature;BMP_pressure;BME280_temperature;BME280_humidity;BME280_pressure;Samples;Min_cycle;Max_cycle;Signal;HPM_P1;HPM_P2
2023/03/11 00:01:11;;;;;;;14.17;12.07;;;1.20;99.90;;;;;;4981366;28;20490;-66
2023/03/11 00:03:38;;;;;;;15.23;11.97;;;1.10;99.90;;;;;;4981827;28;20477;-66
2023/03/11 00:06:07;;;;;;;14.87;12.07;;;1.10;99.90;;;;;;4981748;28;20561;-67
2023/03/11 00:08:36;;;;;;;13.00;11.70;;;1.10;99.90;;;;;;4981324;28;20489;-66
2023/03/11 00:11:04;;;;;;;15.57;12.27;;;1.20;99.90;;;;;;4980813;28;20512;-66
2023/03/11 00:13:32;;;;;;;14.37;12.30;;;1.10;99.90;;;;;;4981905;28;20473;-66
2023/03/11 00:16:01;;;;;;;13.20;11.73;;;1.10;99.90;;;;;;4980430;28;20477;-66
2023/03/11 00:18:30;;;;;;;13.83;11.83;;;1.20;99.90;;;;;;4981017;28;20504;-67
2023/03/11 00:20:59;;;;;;;16.90;13.50;;;1.20;99.90;;;;;;4979962;28;20481;-66
2023/03/11 00:23:28;;;;;;;16.53;12.03;;;1.20;99.90;;;;;;4981511;28;20837;-67
2023/03/11 00:25:58;;;;;;;14.30;11.40;;;1.20;99.90;;;;;;4980932;28;20476;-66
2023/03/11 00:28:26;;;;;;;14.97;12.43;;;1.20;99.90;;;;;;4980355;28;20490;-66
2023/03/11 00:30:54;;;;;;;14.47;12.63;;;1.20;99.90;;;;;;4986033;28;20481;-66
2023/03/11 00:33:23;;;;;;;16.93;12.53;;;1.20;99.90;;;;;;4982391;28;20978;-66
2023/03/11 00:35:51;;;;;;;15.70;13.10;;;1.20;99.90;;;;;;4983766;28;20480;-66
2023/03/11 00:38:19;;;;;;;15.03;13.00;;;1.20;99.90;;;;;;4978456;28;20496;-65
2023/03/11 00:40:48;;;;;;;17.73;13.00;;;1.20;99.90;;;;;;4981512;28;20484;-66
2023/03/11 00:43:18;;;;;;;16.00;13.00;;;1.20;99.90;;;;;;4977570;28;20473;-65
2023/03/11 00:45:46;;;;;;;16.33;13.70;;;1.20;99.90;;;;;;4982093;28;20966;-66
2023/03/11 00:48:14;;;;;;;15.03;13.10;;;1.20;99.90;;;;;;4980290;28;20465;-66
2023/03/11 00:50:43;;;;;;;17.07;13.60;;;1.20;99.90;;;;;;4980810;28;20477;-66
2023/03/11 00:53:11;;;;;;;16.00;13.40;;;1.20;99.90;;;;;;4975872;28;20476;-66
2023/03/11 00:55:39;;;;;;;17.53;13.90;;;1.20;99.90;;;;;;4981724;28;20472;-67
2023/03/11 00:58:10;;;;;;;15.47;13.20;;;1.10;99.90;;;;;;4979786;28;20501;-66
2023/03/11 01:00:40;;;;;;;18.27;14.13;;;1.10;99.90;;;;;;4978948;28;20480;-67
2023/03/11 01:03:08;;;;;;;16.20;13.67;;;1.10;99.90;;;;;;4980157;28;20847;-67
2023/03/11 01:05:36;;;;;;;16.07;13.37;;;1.20;99.90;;;;;;4980271;28;20515;-67
2023/03/11 01:08:04;;;;;;;18.23;13.90;;;1.20;99.90;;;;;;4972240;28;20860;-66
2023/03/11 01:10:33;;;;;;;16.70;13.80;;;1.20;99.90;;;;;;4981203;28;20474;-65
2023/03/11 01:13:02;;;;;;;17.53;13.83;;;1.20;99.90;;;;;;4985298;28;20539;-66
2023/03/11 01:15:33;;;;;;;17.97;14.20;;;1.20;99.90;;;;;;4979102;28;20589;-66
2023/03/11 01:18:03;;;;;;;16.13;14.17;;;1.20;99.90;;;;;;4985963;28;20616;-67
2023/03/11 01:20:31;;;;;;;16.13;14.37;;;1.20;99.90;;;;;;4986009;28;20941;-66
2023/03/11 01:22:59;;;;;;;17.73;14.20;;;1.20;99.90;;;;;;4985524;28;20488;-66
2023/03/11 01:25:27;;;;;;;17.10;13.13;;;1.20;99.90;;;;;;4986502;28;20463;-66
2023/03/11 01:27:55;;;;;;;17.03;13.20;;;1.20;99.90;;;;;;4986285;28;20478;-67
2023/03/11 01:30:24;;;;;;;16.17;12.63;;;1.20;99.90;;;;;;4979758;28;20496;-66
2023/03/11 01:32:53;;;;;;;15.30;12.57;;;1.20;99.90;;;;;;4979679;28;20487;-67
2023/03/11 01:35:25;;;;;;;15.30;12.80;;;1.20;99.90;;;;;;4984785;28;20472;-66
2023/03/11 01:37:53;;;;;;;15.17;13.23;;;1.20;99.90;;;;;;4986059;28;20986;-67
2023/03/11 01:40:26;;;;;;;17.67;12.60;;;1.20;99.90;;;;;;4983626;28;20497;-65
2023/03/11 01:42:54;;;;;;;15.57;13.20;;;1.10;99.90;;;;;;4982233;28;20465;-67
2023/03/11 01:45:38;;;;;;;16.30;12.73;;;1.10;99.90;;;;;;4981052;28;20480;-66
2023/03/11 01:48:06;;;;;;;14.60;12.50;;;1.10;99.90;;;;;;4980742;28;21119;-66
2023/03/11 01:50:40;;;;;;;14.33;12.20;;;1.10;99.90;;;;;;4977552;28;20580;-66
2023/03/11 01:53:09;;;;;;;15.57;12.20;;;1.10;99.90;;;;;;4981496;28;20484;-66
2023/03/11 01:55:38;;;;;;;14.80;13.10;;;1.10;99.90;;;;;;4979557;28;20484;-66
2023/03/11 01:58:10;;;;;;;15.13;12.60;;;1.10;99.90;;;;;;4980867;28;20481;-66
2023/03/11 02:00:39;;;;;;;15.53;13.33;;;1.10;99.90;;;;;;4978782;28;20470;-66
2023/03/11 02:03:11;;;;;;;16.13;13.30;;;1.20;99.90;;;;;;4978524;28;20472;-66
2023/03/11 02:05:42;;;;;;;15.13;12.57;;;1.10;99.90;;;;;;4979784;28;20477;-66
2023/03/11 02:08:10;;;;;;;16.00;13.23;;;1.10;99.90;;;;;;4980362;28;20488;-67
2023/03/11 02:10:40;;;;;;;16.00;12.53;;;1.10;99.90;;;;;;4976830;28;20531;-66
2023/03/11 02:13:09;;;;;;;16.40;12.40;;;1.10;99.90;;;;;;4980127;28;20577;-66
2023/03/11 02:15:37;;;;;;;16.27;12.23;;;1.10;99.90;;;;;;4980332;28;20975;-66
2023/03/11 02:18:08;;;;;;;14.80;11.67;;;1.10;99.90;;;;;;4980285;28;20500;-67
2023/03/11 02:20:44;;;;;;;14.47;12.23;;;1.10;99.90;;;;;;4978848;28;20503;-66
2023/03/11 02:23:13;;;;;;;15.30;12.00;;;1.10;99.90;;;;;;4979808;28;21000;-66
2023/03/11 02:25:50;;;;;;;13.00;11.50;;;1.10;99.90;;;;;;4980467;28;20477;-66
2023/03/11 02:28:21;;;;;;;15.93;11.93;;;1.10;99.90;;;;;;4980419;28;20469;-66
2023/03/11 02:30:50;;;;;;;12.73;11.37;;;1.00;99.90;;;;;;4979654;28;21026;-66
2023/03/11 02:33:19;;;;;;;13.90;12.40;;;1.00;99.90;;;;;;4978651;28;21093;-67
2023/03/11 02:35:47;;;;;;;13.33;11.93;;;1.00;99.90;;;;;;4981796;28;21000;-67
2023/03/11 02:38:15;;;;;;;15.00;12.57;;;1.00;99.90;;;;;;4984355;28;21033;-66
2023/03/11 02:40:55;;;;;;;14.03;11.23;;;1.00;99.90;;;;;;4981124;28;20496;-67
2023/03/11 02:43:29;;;;;;;14.20;12.70;;;0.90;99.90;;;;;;4980812;28;20484;-67
2023/03/11 02:45:58;;;;;;;15.73;11.57;;;0.90;99.90;;;;;;4983335;28;20483;-67
2023/03/11 02:48:27;;;;;;;15.27;12.47;;;0.90;99.90;;;;;;4983254;28;20521;-66
2023/03/11 02:50:56;;;;;;;14.30;12.13;;;0.90;99.90;;;;;;4982478;28;20484;-66
2023/03/11 02:53:26;;;;;;;14.03;12.00;;;0.90;99.90;;;;;;4982333;28;20485;-67
2023/03/11 02:55:54;;;;;;;15.87;12.60;;;0.90;99.90;;;;;;4984278;28;20481;-67
2023/03/11 02:58:22;;;;;;;16.20;12.60;;;0.80;99.90;;;;;;4983088;28;20663;-67
2023/03/11 03:00:51;;;;;;;14.20;11.70;;;0.90;99.90;;;;;;4982481;28;20496;-67
2023/03/11 03:03:19;;;;;;;16.20;11.27;;;0.80;99.90;;;;;;4982139;28;20477;-66
2023/03/11 03:05:47;;;;;;;15.73;12.43;;;0.90;99.90;;;;;;4981763;28;20472;-67
2023/03/11 03:08:15;;;;;;;13.20;10.87;;;0.80;99.90;;;;;;4983017;28;20477;-67
2023/03/11 03:10:43;;;;;;;13.30;11.20;;;0.80;99.90;;;;;;4982134;28;20484;-67
2023/03/11 03:13:11;;;;;;;14.10;11.40;;;0.90;99.90;;;;;;4982093;28;20469;-67
2023/03/11 03:15:39;;;;;;;13.70;11.00;;;0.80;99.90;;;;;;4983918;28;20474;-66
2023/03/11 03:18:08;;;;;;;11.70;10.00;;;0.80;99.90;;;;;;4982652;28;20481;-67
2023/03/11 03:20:36;;;;;;;12.47;10.83;;;0.80;99.90;;;;;;4982185;28;20512;-67
2023/03/11 03:23:04;;;;;;;11.97;10.60;;;0.70;99.90;;;;;;4981459;28;20470;-67
2023/03/11 03:25:32;;;;;;;12.37;10.43;;;0.70;99.90;;;;;;4983379;28;20472;-67
2023/03/11 03:28:00;;;;;;;12.40;10.80;;;0.70;99.90;;;;;;4982857;28;20477;-67
2023/03/11 03:30:28;;;;;;;12.30;10.10;;;0.70;99.90;;;;;;4981966;28;20540;-66
2023/03/11 03:32:56;;;;;;;12.60;10.00;;;0.70;99.90;;;;;;4980911;28;20476;-67
2023/03/11 03:35:26;;;;;;;11.03;9.77;;;0.70;99.90;;;;;;4983422;28;20486;-67
2023/03/11 03:37:54;;;;;;;13.67;10.60;;;0.70;99.90;;;;;;4981895;28;20882;-67
2023/03/11 03:40:22;;;;;;;11.67;10.47;;;0.70;99.90;;;;;;4980372;28;20857;-66
2023/03/11 03:42:50;;;;;;;12.60;10.53;;;0.60;99.90;;;;;;4983156;28;20493;-68
2023/03/11 03:45:19;;;;;;;13.60;9.87;;;0.60;99.90;;;;;;4982623;28;20480;-67
2023/03/11 03:47:47;;;;;;;11.37;9.90;;;0.60;99.90;;;;;;4982684;28;20473;-67
2023/03/11 03:50:15;;;;;;;12.60;10.03;;;0.60;99.90;;;;;;4980492;28;20484;-66
2023/03/11 03:52:44;;;;;;;13.67;10.77;;;0.70;99.90;;;;;;4981444;28;20485;-67
2023/03/11 03:55:12;;;;;;;13.97;10.90;;;0.60;99.90;;;;;;4981662;28;20486;-67
2023/03/11 03:57:40;;;;;;;12.33;10.00;;;0.60;99.90;;;;;;4981697;28;20480;-67
2023/03/11 04:00:09;;;;;;;12.53;10.90;;;0.70;99.90;;;;;;4982477;28;20494;-66
2023/03/11 04:02:37;;;;;;;11.87;10.17;;;0.60;99.90;;;;;;4980774;28;20504;-66
2023/03/11 04:05:06;;;;;;;12.50;10.47;;;0.70;99.90;;;;;;4981855;28;20564;-66
2023/03/11 04:07:35;;;;;;;11.40;9.83;;;0.70;99.90;;;;;;4980896;28;20482;-67
2023/03/11 04:10:05;;;;;;;11.77;10.13;;;0.70;99.90;;;;;;4981648;28;20503;-67
2023/03/11 04:12:33;;;;;;;12.07;10.77;;;0.70;99.90;;;;;;4981264;28;20488;-67
2023/03/11 04:15:01;;;;;;;11.30;10.03;;;0.70;99.90;;;;;;4980400;28;20481;-67
2023/03/11 04:17:29;;;;;;;12.30;9.90;;;0.70;99.90;;;;;;4982292;28;20469;-66
2023/03/11 04:19:57;;;;;;;13.50;10.00;;;0.70;99.90;;;;;;4980848;28;21043;-68
2023/03/11 04:22:25;;;;;;;12.97;10.70;;;0.70;99.90;;;;;;4979794;28;20480;-66
2023/03/11 04:24:53;;;;;;;14.83;11.47;;;0.60;99.90;;;;;;4982259;28;20474;-68
2023/03/11 04:27:22;;;;;;;11.40;10.17;;;0.70;99.90;;;;;;4979402;28;20474;-68
2023/03/11 04:29:50;;;;;;;11.83;10.33;;;0.70;99.90;;;;;;4975826;28;20496;-67
2023/03/11 04:32:18;;;;;;;14.87;11.43;;;0.60;99.90;;;;;;4981240;28;20478;-67
2023/03/11 04:34:46;;;;;;;11.07;9.87;;;0.70;99.90;;;;;;4981668;28;20576;-67
2023/03/11 04:37:14;;;;;;;11.93;10.63;;;0.60;99.90;;;;;;4978287;28;20476;-67
2023/03/11 04:39:42;;;;;;;12.53;9.97;;;0.60;99.90;;;;;;4987790;28;20490;-67
2023/03/11 04:42:12;;;;;;;12.10;10.00;;;0.60;99.90;;;;;;4986140;28;20892;-67
2023/03/11 04:44:42;;;;;;;11.03;9.40;;;0.50;99.90;;;;;;4982974;28;20484;-67
2023/03/11 04:47:09;;;;;;;12.63;10.37;;;0.50;99.90;;;;;;4979564;28;20477;-67
2023/03/11 04:49:37;;;;;;;12.23;9.30;;;0.50;99.90;;;;;;4981926;28;21048;-67
2023/03/11 04:52:05;;;;;;;12.27;9.70;;;0.50;99.90;;;;;;4980155;28;20692;-67
2023/03/11 04:54:34;;;;;;;11.67;9.77;;;0.50;99.90;;;;;;4982092;28;20470;-68
2023/03/11 04:57:02;;;;;;;12.80;9.60;;;0.50;99.90;;;;;;4980040;28;20473;-67
2023/03/11 04:59:29;;;;;;;12.17;10.20;;;0.50;99.90;;;;;;4981443;28;20493;-67
2023/03/11 05:01:59;;;;;;;12.70;10.03;;;0.40;99.90;;;;;;4972246;28;20498;-68
2023/03/11 05:04:27;;;;;;;11.97;9.83;;;0.40;99.90;;;;;;4982046;28;20469;-68
2023/03/11 05:06:55;;;;;;;12.23;10.07;;;0.40;99.90;;;;;;4979139;28;20473;-68
2023/03/11 05:09:23;;;;;;;11.10;9.70;;;0.40;99.90;;;;;;4981376;28;20494;-68
2023/03/11 05:11:51;;;;;;;11.30;9.83;;;0.30;99.90;;;;;;4983720;28;20481;-67
2023/03/11 05:14:18;;;;;;;12.57;10.40;;;0.30;99.90;;;;;;4983088;28;20477;-68
2023/03/11 05:16:46;;;;;;;12.17;10.10;;;0.20;99.90;;;;;;4985068;28;20472;-67
2023/03/11 05:19:30;;;;;;;10.30;9.20;;;0.20;99.90;;;;;;4982533;28;20500;-68
2023/03/11 05:21:58;;;;;;;11.43;10.03;;;0.20;99.90;;;;;;4976163;28;20481;-70
2023/03/11 05:24:27;;;;;;;12.07;10.07;;;0.20;99.90;;;;;;4979375;28;20469;-68
2023/03/11 05:26:56;;;;;;;14.37;10.23;;;0.10;99.90;;;;;;4978104;28;20533;-68
2023/03/11 05:29:24;;;;;;;12.30;10.60;;;0.10;99.90;;;;;;4981437;28;20490;-68
2023/03/11 05:31:52;;;;;;;13.17;9.60;;;0.10;99.90;;;;;;4974742;28;20492;-67
2023/03/11 05:34:22;;;;;;;11.87;9.20;;;0.10;99.90;;;;;;4988132;28;20475;-68
2023/03/11 05:36:49;;;;;;;10.10;8.97;;;0.10;99.90;;;;;;4984476;28;21139;-67
2023/03/11 05:39:17;;;;;;;11.17;8.77;;;0.00;99.90;;;;;;4982046;28;20497;-67
2023/03/11 05:41:45;;;;;;;11.50;8.80;;;0.00;99.90;;;;;;4983792;28;20485;-67
2023/03/11 05:44:13;;;;;;;10.90;9.20;;;0.00;99.90;;;;;;4983208;28;20469;-68
2023/03/11 05:46:41;;;;;;;11.00;9.07;;;0.00;99.90;;;;;;4981245;28;20470;-68
2023/03/11 05:49:09;;;;;;;11.33;9.20;;;-0.10;99.90;;;;;;4980871;28;21014;-68
2023/03/11 05:51:39;;;;;;;10.60;9.27;;;-0.10;99.90;;;;;;4981686;28;20488;-68
2023/03/11 05:54:13;;;;;;;11.50;8.87;;;-0.10;99.90;;;;;;4981642;28;20646;-68
2023/03/11 05:56:42;;;;;;;10.80;8.20;;;-0.10;99.90;;;;;;4982683;28;20551;-68
2023/03/11 05:59:11;;;;;;;13.10;9.47;;;-0.10;99.90;;;;;;4982053;28;20489;-68
2023/03/11 06:01:42;;;;;;;11.03;9.23;;;-0.10;99.90;;;;;;4978934;28;20498;-68
2023/03/11 06:04:10;;;;;;;10.17;8.20;;;-0.20;99.90;;;;;;4986130;28;20478;-68
2023/03/11 06:06:41;;;;;;;10.60;8.80;;;-0.20;99.90;;;;;;4987942;28;20465;-68
2023/03/11 06:09:12;;;;;;;10.07;8.70;;;-0.20;99.90;;;;;;4987860;28;20497;-68
2023/03/11 06:11:40;;;;;;;13.40;9.00;;;-0.20;99.90;;;;;;4989031;28;20480;-68
2023/03/11 06:14:10;;;;;;;10.50;8.60;;;-0.20;99.90;;;;;;4985799;28;20481;-68
2023/03/11 06:16:39;;;;;;;12.43;9.20;;;-0.30;99.90;;;;;;4982704;28;21038;-68
2023/03/11 06:19:07;;;;;;;14.10;9.50;;;-0.30;99.90;;;;;;4982089;28;20494;-68
2023/03/11 06:21:35;;;;;;;10.50;8.63;;;-0.30;99.90;;;;;;4985411;28;20489;-67
2023/03/11 06:24:06;;;;;;;11.00;8.80;;;-0.30;99.90;;;;;;4987978;28;20469;-67
2023/03/11 06:26:34;;;;;;;10.53;8.27;;;-0.30;99.90;;;;;;4987922;28;20473;-67
2023/03/11 06:29:01;;;;;;;11.93;10.03;;;-0.30;99.90;;;;;;4985938;28;20489;-67
2023/03/11 06:31:30;;;;;;;10.97;9.10;;;-0.30;99.90;;;;;;4982808;28;20476;-67
2023/03/11 06:33:58;;;;;;;12.20;9.47;;;-0.30;99.90;;;;;;4984239;28;20469;-68
2023/03/11 06:36:26;;;;;;;13.03;9.40;;;-0.30;99.90;;;;;;4981397;28;20470;-68
2023/03/11 06:38:55;;;;;;;12.00;9.67;;;-0.30;99.90;;;;;;4983299;28;21023;-68
2023/03/11 06:41:24;;;;;;;11.63;9.30;;;-0.20;99.90;;;;;;4981169;28;20489;-68
2023/03/11 06:43:52;;;;;;;11.33;9.40;;;-0.30;99.90;;;;;;4992839;28;20493;-68
2023/03/11 06:46:22;;;;;;;12.10;9.10;;;-0.30;99.90;;;;;;4992216;28;20477;-68
2023/03/11 06:48:51;;;;;;;12.87;9.80;;;-0.20;99.90;;;;;;4985928;28;20489;-68
2023/03/11 06:51:20;;;;;;;12.00;9.70;;;-0.20;99.90;;;;;;4984077;28;20480;-68
2023/03/11 06:53:50;;;;;;;10.63;9.20;;;-0.20;99.90;;;;;;4985031;28;20881;-68
2023/03/11 06:56:19;;;;;;;11.80;8.87;;;-0.20;99.90;;;;;;4981094;28;20970;-68
2023/03/11 06:58:49;;;;;;;10.83;8.67;;;-0.10;99.90;;;;;;4982541;28;20500;-68
2023/03/11 07:01:18;;;;;;;12.00;9.40;;;-0.10;99.90;;;;;;4982568;28;20486;-68
2023/03/11 07:03:47;;;;;;;12.23;9.13;;;-0.10;99.90;;;;;;4983258;28;20473;-68
2023/03/11 07:06:18;;;;;;;12.57;9.47;;;-0.10;99.90;;;;;;4982767;28;20500;-67
2023/03/11 07:08:47;;;;;;;11.00;8.90;;;-0.10;99.90;;;;;;4983439;28;20496;-68
2023/03/11 07:11:18;;;;;;;11.40;8.80;;;0.00;99.90;;;;;;4979854;28;20543;-68
2023/03/11 07:13:48;;;;;;;9.83;8.70;;;0.00;99.90;;;;;;4983273;28;20472;-68
2023/03/11 07:16:18;;;;;;;10.17;9.07;;;0.00;99.90;;;;;;4981920;28;20476;-68
2023/03/11 07:18:48;;;;;;;10.60;8.50;;;0.10;99.90;;;;;;4983412;28;20501;-67
2023/03/11 07:21:18;;;;;;;12.10;9.00;;;0.10;99.90;;;;;;4982325;28;21026;-67
2023/03/11 07:23:48;;;;;;;11.07;9.30;;;0.10;99.90;;;;;;4982879;28;20958;-67
2023/03/11 07:26:17;;;;;;;11.40;9.00;;;0.10;99.90;;;;;;4983268;28;20815;-68
2023/03/11 07:28:46;;;;;;;11.53;9.10;;;0.20;99.90;;;;;;4983678;28;20508;-68
2023/03/11 07:31:18;;;;;;;10.33;7.77;;;0.20;99.90;;;;;;4978043;28;20573;-68
2023/03/11 07:33:47;;;;;;;11.87;9.57;;;0.20;99.90;;;;;;4983335;28;20528;-67
2023/03/11 07:36:17;;;;;;;10.00;8.57;;;0.20;99.90;;;;;;4983380;28;20461;-67
2023/03/11 07:38:46;;;;;;;9.63;8.60;;;0.20;99.90;;;;;;4982598;28;20508;-68
2023/03/11 07:41:15;;;;;;;10.80;8.67;;;0.30;99.90;;;;;;4977768;28;20513;-68
2023/03/11 07:43:43;;;;;;;10.67;8.70;;;0.40;99.90;;;;;;4983240;28;20458;-67
2023/03/11 07:46:15;;;;;;;10.80;8.77;;;0.50;99.90;;;;;;4982982;28;20476;-68
2023/03/11 07:48:45;;;;;;;9.97;8.60;;;0.70;99.90;;;;;;4983043;28;20589;-67
2023/03/11 07:51:15;;;;;;;11.30;8.80;;;0.80;99.90;;;;;;4981709;28;20505;-68
2023/03/11 07:53:46;;;;;;;10.30;8.60;;;0.80;99.90;;;;;;4984654;28;20465;-68
2023/03/11 07:56:16;;;;;;;12.03;8.60;;;0.80;99.90;;;;;;4983056;28;20476;-68
2023/03/11 07:58:44;;;;;;;11.17;8.60;;;0.70;99.90;;;;;;4983312;28;21003;-67
2023/03/11 08:01:15;;;;;;;8.50;7.50;;;0.80;99.90;;;;;;4982807;28;20552;-68
2023/03/11 08:03:46;;;;;;;10.43;8.03;;;0.80;99.90;;;;;;4975605;28;20520;-68
2023/03/11 08:06:14;;;;;;;9.07;7.73;;;0.80;99.90;;;;;;4979022;28;20481;-68
2023/03/11 08:08:43;;;;;;;8.67;7.23;;;0.90;99.90;;;;;;4982879;28;20876;-68
2023/03/11 08:11:12;;;;;;;8.57;7.60;;;0.90;99.90;;;;;;4985358;28;20484;-68
2023/03/11 08:13:40;;;;;;;8.97;7.30;;;0.90;99.90;;;;;;4983981;28;20823;-68
2023/03/11 08:16:10;;;;;;;7.70;6.73;;;1.00;99.90;;;;;;4983310;28;21041;-67
2023/03/11 08:18:38;;;;;;;8.33;6.57;;;1.00;99.90;;;;;;4985337;28;20562;-68
2023/03/11 08:21:09;;;;;;;7.63;6.83;;;1.00;99.90;;;;;;4981972;28;20528;-68
2023/03/11 08:23:37;;;;;;;8.03;6.17;;;1.00;99.90;;;;;;4982732;28;20552;-69
2023/03/11 08:26:06;;;;;;;7.50;6.33;;;1.00;99.90;;;;;;4983145;28;20484;-68
2023/03/11 08:28:34;;;;;;;9.50;6.47;;;1.00;99.90;;;;;;4983017;28;21024;-68
2023/03/11 08:31:03;;;;;;;6.10;5.50;;;1.00;99.90;;;;;;4977853;28;20474;-68
2023/03/11 08:33:31;;;;;;;8.00;5.97;;;1.10;99.90;;;;;;4981793;28;20509;-68
2023/03/11 08:35:59;;;;;;;8.23;5.93;;;1.20;99.90;;;;;;4981365;28;20554;-68
2023/03/11 08:38:29;;;;;;;5.73;5.13;;;1.20;99.90;;;;;;4981655;28;20547;-68
2023/03/11 08:40:57;;;;;;;7.00;6.03;;;1.20;99.90;;;;;;4980225;28;20477;-68
2023/03/11 08:43:25;;;;;;;6.30;5.20;;;1.20;99.90;;;;;;4982077;28;20497;-68
2023/03/11 08:45:53;;;;;;;7.60;5.43;;;1.20;99.90;;;;;;4981213;28;20465;-68
2023/03/11 08:48:22;;;;;;;6.70;5.40;;;1.30;99.90;;;;;;4992985;28;20859;-67
2023/03/11 08:50:50;;;;;;;6.90;5.03;;;1.30;99.90;;;;;;4991398;28;20568;-67
2023/03/11 08:53:21;;;;;;;8.77;5.93;;;1.40;99.90;;;;;;4983369;28;20520;-66
2023/03/11 08:55:51;;;;;;;6.63;5.63;;;1.40;99.90;;;;;;4981813;28;20563;-67
2023/03/11 08:58:20;;;;;;;6.80;5.63;;;1.50;99.90;;;;;;4979068;28;20474;-68
2023/03/11 09:00:48;;;;;;;5.50;4.90;;;1.50;99.90;;;;;;4979405;28;20477;-68
2023/03/11 09:03:16;;;;;;;5.80;5.20;;;1.50;99.90;;;;;;4981214;28;20523;-68
2023/03/11 09:05:44;;;;;;;7.10;5.77;;;1.50;99.90;;;;;;4981198;28;21233;-67
2023/03/11 09:08:12;;;;;;;6.90;5.50;;;1.50;99.90;;;;;;4977871;28;20585;-67
2023/03/11 09:10:39;;;;;;;5.40;4.90;;;1.60;99.90;;;;;;4980686;28;20474;-68
2023/03/11 09:13:09;;;;;;;5.57;4.40;;;1.60;99.90;;;;;;4980389;28;20508;-68
2023/03/11 09:15:37;;;;;;;5.87;4.40;;;1.60;99.90;;;;;;4979651;28;20482;-68
2023/03/11 09:18:07;;;;;;;6.80;4.90;;;1.70;99.90;;;;;;4978012;28;20476;-67
2023/03/11 09:20:38;;;;;;;4.60;3.93;;;1.70;99.90;;;;;;4980215;28;20932;-67
2023/03/11 09:23:10;;;;;;;5.50;4.07;;;1.80;99.90;;;;;;4979637;28;20505;-68
2023/03/11 09:25:38;;;;;;;5.10;4.27;;;1.80;99.90;;;;;;4980060;28;20536;-68
2023/03/11 09:28:06;;;;;;;5.70;4.47;;;1.80;99.90;;;;;;4980970;28;20477;-67
2023/03/11 09:30:36;;;;;;;6.10;4.60;;;1.90;99.90;;;;;;4980221;28;20492;-67
2023/03/11 09:33:04;;;;;;;5.33;4.60;;;2.00;99.90;;;;;;4979252;28;20473;-67
2023/03/11 09:35:32;;;;;;;7.10;4.90;;;2.00;99.90;;;;;;4980973;28;20474;-67
2023/03/11 09:38:00;;;;;;;6.20;4.60;;;2.00;99.90;;;;;;4978465;28;20478;-68
2023/03/11 09:40:41;;;;;;;5.00;4.50;;;2.10;99.90;;;;;;4979550;28;20501;-67
2023/03/11 09:43:21;;;;;;;6.10;4.20;;;2.10;99.90;;;;;;4979578;28;21814;-68
2023/03/11 09:45:59;;;;;;;5.40;4.00;;;2.10;99.90;;;;;;4981678;28;20491;-68
2023/03/11 09:48:36;;;;;;;4.63;3.97;;;2.20;99.90;;;;;;4977861;28;20477;-67
2023/03/11 09:51:12;;;;;;;4.20;3.80;;;2.20;99.90;;;;;;4979171;28;20485;-68
2023/03/11 09:53:42;;;;;;;3.80;3.50;;;2.30;99.90;;;;;;4980696;28;20479;-68
2023/03/11 09:56:13;;;;;;;4.40;4.00;;;2.30;99.90;;;;;;4983541;28;20476;-68
2023/03/11 09:58:45;;;;;;;3.97;3.57;;;2.40;99.90;;;;;;4984165;28;20493;-68
2023/03/11 10:01:20;;;;;;;4.00;3.70;;;2.40;99.90;;;;;;4982408;28;20490;-66
2023/03/11 10:03:51;;;;;;;4.03;3.20;;;2.40;99.90;;;;;;4984052;28;20484;-68
2023/03/11 10:06:22;;;;;;;4.00;3.20;;;2.40;99.90;;;;;;4983731;28;20484;-67
2023/03/11 10:08:59;;;;;;;4.33;3.40;;;2.40;99.90;;;;;;4983492;28;20499;-66
2023/03/11 10:11:51;;;;;;;5.97;3.40;;;2.50;99.90;;;;;;4982153;28;20484;-68
2023/03/11 10:14:42;;;;;;;4.90;3.30;;;2.60;99.90;;;;;;4984053;28;20539;-68
2023/03/11 10:17:22;;;;;;;4.40;3.17;;;2.60;99.90;;;;;;4982947;28;20477;-67
2023/03/11 10:19:56;;;;;;;5.70;2.93;;;2.70;99.90;;;;;;4984633;28;20492;-68
2023/03/11 10:22:33;;;;;;;4.73;3.60;;;2.70;99.90;;;;;;4983077;28;21036;-67
2023/03/11 10:25:09;;;;;;;5.57;3.83;;;2.70;99.90;;;;;;4983523;28;20494;-67
2023/03/11 10:27:43;;;;;;;4.60;3.73;;;2.70;99.90;;;;;;4982989;28;20481;-67
2023/03/11 10:30:20;;;;;;;5.57;3.50;;;2.80;99.90;;;;;;4983433;28;20497;-66
2023/03/11 10:32:54;;;;;;;4.50;3.77;;;2.80;99.90;;;;;;4983172;28;20972;-67
2023/03/11 10:35:24;;;;;;;3.73;3.10;;;2.90;99.90;;;;;;4983607;28;20480;-66
2023/03/11 10:37:56;;;;;;;3.80;3.23;;;3.00;99.90;;;;;;4983374;28;21028;-67
2023/03/11 10:40:30;;;;;;;3.10;2.80;;;3.00;99.90;;;;;;4983390;28;20507;-67
2023/03/11 10:43:02;;;;;;;3.77;3.33;;;3.10;99.90;;;;;;4982334;28;20468;-67
2023/03/11 10:45:40;;;;;;;4.13;2.90;;;3.20;99.90;;;;;;4983378;28;20480;-67
2023/03/11 10:48:11;;;;;;;4.20;3.50;;;3.30;99.90;;;;;;4983770;28;20480;-67
2023/03/11 10:50:48;;;;;;;4.20;3.07;;;3.30;99.90;;;;;;4983733;28;20496;-66
2023/03/11 10:53:18;;;;;;;4.80;3.13;;;3.40;99.90;;;;;;4989453;28;20474;-68
2023/03/11 10:55:48;;;;;;;4.33;3.93;;;3.60;99.90;;;;;;4986199;28;20476;-65
2023/03/11 10:58:18;;;;;;;4.73;3.23;;;3.70;99.90;;;;;;4973933;28;20476;-66
2023/03/11 11:00:46;;;;;;;4.83;3.50;;;3.90;99.90;;;;;;4981677;28;20485;-66
2023/03/11 11:03:23;;;;;;;3.57;2.70;;;4.00;99.90;;;;;;4982711;28;20477;-66
2023/03/11 11:06:00;;;;;;;3.50;2.77;;;4.10;99.90;;;;;;4979933;28;20819;-65
2023/03/11 11:08:28;;;;;;;3.50;2.80;;;4.10;99.90;;;;;;4982411;28;20526;-67
2023/03/11 11:10:58;;;;;;;4.33;3.50;;;4.10;99.90;;;;;;4982205;28;20484;-66
2023/03/11 11:13:30;;;;;;;4.70;3.33;;;4.20;99.90;;;;;;4983650;28;20987;-65
2023/03/11 11:16:01;;;;;;;3.63;3.00;;;4.30;99.90;;;;;;4983395;28;20520;-65
2023/03/11 11:18:33;;;;;;;3.40;3.10;;;4.40;99.90;;;;;;4984080;28;20576;-65
2023/03/11 11:21:04;;;;;;;3.30;2.97;;;4.50;99.90;;;;;;4979907;28;20962;-65
2023/03/11 11:23:37;;;;;;;3.80;3.37;;;4.60;99.90;;;;;;4983192;28;20481;-66
2023/03/11 11:26:07;;;;;;;4.80;3.37;;;4.60;99.90;;;;;;4981652;28;20465;-66
2023/03/11 11:28:36;;;;;;;3.20;2.80;;;4.70;99.90;;;;;;4972978;28;20508;-66
2023/03/11 11:31:06;;;;;;;4.60;3.40;;;4.80;99.90;;;;;;4981283;28;20474;-65
2023/03/11 11:33:40;;;;;;;6.20;3.57;;;4.90;99.90;;;;;;4982101;28;20985;-66
2023/03/11 11:36:15;;;;;;;6.00;3.67;;;5.00;99.90;;;;;;4978551;28;20966;-66
2023/03/11 11:38:43;;;;;;;5.00;3.10;;;5.10;99.90;;;;;;4981410;28;20488;-66
2023/03/11 11:41:16;;;;;;;3.33;2.53;;;5.30;99.90;;;;;;4981728;28;20500;-66
2023/03/11 11:43:49;;;;;;;4.80;3.00;;;5.40;99.90;;;;;;4983429;28;20480;-66
2023/03/11 11:46:22;;;;;;;4.27;2.60;;;5.60;99.90;;;;;;4979833;28;20472;-66
2023/03/11 11:49:03;;;;;;;5.63;2.80;;;5.60;99.90;;;;;;4982315;28;20588;-66
2023/03/11 11:51:35;;;;;;;3.03;2.17;;;5.70;99.90;;;;;;4979855;28;20479;-66
2023/03/11 11:54:14;;;;;;;3.10;2.47;;;5.80;99.90;;;;;;4981459;28;21097;-66
2023/03/11 11:56:42;;;;;;;5.10;2.20;;;5.90;99.90;;;;;;4981777;28;20472;-66
2023/03/11 11:59:17;;;;;;;3.93;2.47;;;6.00;99.90;;;;;;4972890;28;20494;-66
2023/03/11 12:01:55;;;;;;;2.50;2.30;;;6.10;99.90;;;;;;4981686;28;20482;-66
2023/03/11 12:04:50;;;;;;;2.20;1.80;;;6.40;99.90;;;;;;4981939;28;20494;-66
2023/03/11 12:07:32;;;;;;;2.23;1.50;;;6.70;99.90;;;;;;4980922;28;20477;-66
2023/03/11 12:10:11;;;;;;;2.00;1.83;;;7.00;99.90;;;;;;4981145;28;20490;-66
2023/03/11 12:13:04;;;;;;;1.60;1.37;;;7.20;99.90;;;;;;4980234;28;20535;-66
2023/03/11 12:15:38;;;;;;;4.93;1.30;;;7.30;99.90;;;;;;4981197;28;20477;-66
2023/03/11 12:18:15;;;;;;;3.73;1.30;;;7.10;99.90;;;;;;4981601;28;21005;-66
2023/03/11 12:20:47;;;;;;;2.23;1.30;;;7.10;99.90;;;;;;4981323;28;20480;-66
2023/03/11 12:23:22;;;;;;;4.43;1.60;;;7.00;99.90;;;;;;4981439;28;21001;-66
2023/03/11 12:26:04;;;;;;;1.70;1.07;;;6.90;99.90;;;;;;4980989;28;21112;-66
2023/03/11 12:28:41;;;;;;;3.60;1.30;;;7.10;99.90;;;;;;4980775;28;20497;-66
2023/03/11 12:31:11;;;;;;;2.70;1.13;;;7.50;99.90;;;;;;4978941;28;20492;-66
2023/03/11 12:33:42;;;;;;;6.47;2.37;;;8.10;99.90;;;;;;4981573;28;20552;-66
2023/03/11 12:36:24;;;;;;;2.40;1.10;;;8.80;99.90;;;;;;4981088;28;20488;-66
2023/03/11 12:38:53;;;;;;;2.30;1.17;;;9.50;99.90;;;;;;4979842;28;20485;-66
2023/03/11 12:41:35;;;;;;;4.43;1.10;;;10.20;99.90;;;;;;4978749;28;20496;-66
2023/03/11 12:44:19;;;;;;;2.57;1.10;;;10.50;99.90;;;;;;4981324;28;20477;-66
2023/03/11 12:47:19;;;;;;;1.57;0.90;;;11.40;99.90;;;;;;4980251;28;20476;-66
2023/03/11 12:49:48;;;;;;;2.50;1.20;;;13.10;99.90;;;;;;4980194;28;21356;-67
2023/03/11 12:52:27;;;;;;;2.20;0.90;;;13.50;92.30;;;;;;4979364;28;20490;-66
2023/03/11 12:55:36;;;;;;;2.10;1.20;;;13.00;99.90;;;;;;4980290;28;20480;-66
2023/03/11 12:58:29;;;;;;;2.07;0.97;;;12.70;99.90;;;;;;4982879;28;20465;-66
2023/03/11 13:01:13;;;;;;;2.90;1.20;;;11.90;99.90;;;;;;4978180;28;20477;-66
2023/03/11 13:04:00;;;;;;;3.20;1.37;;;11.20;99.90;;;;;;4981676;28;20480;-66